This is the latest recevied weather packets stored in our database for station/object N3FAA. If no packets are shown the sender has not sent any weather packets the latest 10 day(s).
| Time | Temp. | Humidity | Pressure | Rain* | Wind** | Luminosity | Snow |
|---|---|---|---|---|---|---|---|
| 1778162277 | 15° C | 57% | 1014.7 hPa | 0 mm | - | 54 W/m² | - |
| 1778161974 | 14.44° C | 59% | 1014.7 hPa | 0 mm | - | 49 W/m² | - |
| 1778161670 | 14.44° C | 59% | 1014.6 hPa | 0 mm | - | 43 W/m² | - |
| 1778161367 | 13.89° C | 59% | 1014.4 hPa | 0 mm | - | 39 W/m² | - |
| 1778161062 | 13.89° C | 59% | 1014.6 hPa | 0 mm | - | 35 W/m² | - |
| 1778160759 | 13.33° C | 61% | 1014 hPa | 0 mm | - | 30 W/m² | - |
| 1778160457 | 12.22° C | 63% | 1014.3 hPa | 0 mm | - | 25 W/m² | - |
| 1778160154 | 12.22° C | 64% | 1014.3 hPa | 0 mm | - | 20 W/m² | - |
| 1778159850 | 11.67° C | 65% | 1014.6 hPa | 0 mm | - | 16 W/m² | - |
| 1778159548 | 11.67° C | 67% | 1014.4 hPa | 0 mm | - | 13 W/m² | - |
| 1778159244 | 11.67° C | 67% | 1014.3 hPa | 0 mm | - | 8 W/m² | - |
| 1778158942 | 11.67° C | 67% | 1014.4 hPa | 0 mm | - | 5 W/m² | - |
| 1778158640 | 10.56° C | 70% | 1014.1 hPa | 0 mm | - | 2 W/m² | - |
| 1778158338 | 10.56° C | 70% | 1014.4 hPa | 0 mm | - | 0 W/m² | - |
| 1778158034 | 10.56° C | 68% | 1014.1 hPa | 0 mm | - | 0 W/m² | - |
| 1778157731 | 11.67° C | 68% | 1014.3 hPa | 0 mm | - | 0 W/m² | - |
| 1778157430 | 11.67° C | 67% | 1014.1 hPa | 0 mm | - | 0 W/m² | - |
| 1778157127 | 11.67° C | 68% | 1014 hPa | 0 mm | - | 0 W/m² | - |
| 1778156821 | 11.67° C | 67% | 1014.1 hPa | 0 mm | - | 0 W/m² | - |
| 1778156518 | 12.22° C | 67% | 1014.1 hPa | 0 mm | - | 0 W/m² | - |
| 1778156214 | 12.22° C | 67% | 1014.3 hPa | 0 mm | - | 0 W/m² | - |
| 1778155910 | 12.22° C | 66% | 1014.3 hPa | 0 mm | - | 0 W/m² | - |
| 1778155606 | 12.22° C | 64% | 1014.4 hPa | 0 mm | - | 0 W/m² | - |
| 1778155303 | 12.78° C | 64% | 1014.4 hPa | 0 mm | - | 0 W/m² | - |
| 1778154999 | 12.78° C | 64% | 1014.4 hPa | 0 mm | - | 0 W/m² | - |
* Rain latest hour (hover to see other rain measurements)
** Current wind speed in m/s (hover to see current wind gust speed)